Terminal Aerodrome Forecast
Issued by NWS Charleston, WV

Current Version | Previous Version | Text Only | Print | Product List | Glossary Off
Versions: 1 2 3 4 5 6 7 8 9 10 11 12 13 14 15 16 17 18 19 20 21 22 23 24 25 26

477
FTUS41 KRLX 141232 AAA
TAFPKB
TAF AMD
KPKB 141232Z 1413/1512 VRB03KT 2SM -FZRA OVC004
     FM141500 VRB03KT 4SM BR OVC007
     FM150400 VRB03KT 4SM BR OVC010
     FM150600 VRB03KT P6SM BKN019
     FM151000 VRB03KT P6SM BKN080=

USA.gov is the U.S. government's official web portal to all federal, state and local government web resources and services.